Time;durP1;ratioP1;P1;durP2;ratioP2;P2;SDS_P1;SDS_P2;PMS_P1;PMS_P2;Temp;Humidity;BMP_temperature;BMP_pressure;BME280_temperature;BME280_humidity;BME280_pressure;Samples;Min_cycle;Max_cycle;Signal;HPM_P1;HPM_P2
2024/01/01 00:00:17;;;;;;;53.17;24.80;;;10.20;38.40;;;;;;5070957;28;20382;-74
2024/01/01 00:02:42;;;;;;;38.73;20.83;;;10.30;38.10;;;;;;5070717;28;20408;-74
2024/01/01 00:05:09;;;;;;;33.20;12.57;;;10.20;38.30;;;;;;5071172;28;20386;-73
2024/01/01 00:07:35;;;;;;;19.58;9.20;;;10.30;38.30;;;;;;5070939;28;20467;-74
2024/01/01 00:10:00;;;;;;;19.00;9.38;;;10.20;38.20;;;;;;5070885;28;20434;-74
2024/01/01 00:12:26;;;;;;;26.15;11.02;;;10.20;38.10;;;;;;5070598;28;20384;-74
2024/01/01 00:14:51;;;;;;;22.75;8.95;;;10.20;38.10;;;;;;5070944;28;20392;-73
2024/01/01 00:17:17;;;;;;;23.00;8.10;;;10.10;37.90;;;;;;5070731;28;20874;-74
2024/01/01 00:19:43;;;;;;;25.80;8.57;;;10.00;38.50;;;;;;5070683;28;20400;-74
2024/01/01 00:22:09;;;;;;;22.07;8.90;;;9.80;38.90;;;;;;5070454;28;20483;-75
2024/01/01 00:24:34;;;;;;;23.13;8.10;;;9.80;38.90;;;;;;5070485;28;20463;-73
2024/01/01 00:27:00;;;;;;;17.97;8.10;;;9.60;39.30;;;;;;5070086;28;20379;-74
2024/01/01 00:29:25;;;;;;;22.60;8.50;;;9.60;39.40;;;;;;5070987;28;20866;-74
2024/01/01 00:31:52;;;;;;;19.63;7.95;;;9.60;39.70;;;;;;5070471;28;20397;-73
2024/01/01 00:34:17;;;;;;;21.55;7.57;;;9.70;39.20;;;;;;5052565;28;20754;-74
2024/01/01 00:36:43;;;;;;;21.37;8.67;;;9.70;39.30;;;;;;5070590;28;20375;-74
2024/01/01 00:39:09;;;;;;;20.10;8.70;;;9.80;38.80;;;;;;5071083;28;20411;-73
2024/01/01 00:41:38;;;;;;;20.08;7.95;;;9.70;38.90;;;;;;5070851;28;20734;-73
2024/01/01 00:44:04;;;;;;;25.15;8.05;;;9.80;38.70;;;;;;5052634;28;20770;-73
2024/01/01 00:46:30;;;;;;;26.67;8.25;;;9.80;38.40;;;;;;5070746;28;20880;-73
2024/01/01 00:48:56;;;;;;;17.13;6.60;;;9.90;38.00;;;;;;5072263;28;20394;-73
2024/01/01 00:51:22;;;;;;;16.40;6.10;;;9.80;37.70;;;;;;5074300;28;20398;-72
2024/01/01 00:53:47;;;;;;;16.27;6.30;;;9.90;37.70;;;;;;5073656;28;20388;-74
2024/01/01 00:56:13;;;;;;;20.90;8.43;;;9.90;37.70;;;;;;5073514;28;20445;-73
2024/01/01 00:58:39;;;;;;;20.73;6.20;;;9.90;37.70;;;;;;5055378;28;20391;-73
2024/01/01 01:01:05;;;;;;;18.83;5.47;;;10.00;37.50;;;;;;5072883;28;20395;-73
2024/01/01 01:03:31;;;;;;;18.73;5.67;;;9.90;37.50;;;;;;5071930;28;20390;-72
2024/01/01 01:05:57;;;;;;;14.45;5.15;;;9.90;37.10;;;;;;5053506;28;20407;-72
2024/01/01 01:08:22;;;;;;;20.77;4.47;;;10.00;36.80;;;;;;5070987;28;20382;-73
2024/01/01 01:10:49;;;;;;;16.10;4.57;;;10.00;36.80;;;;;;5070644;28;20468;-73
2024/01/01 01:13:15;;;;;;;15.07;3.88;;;9.90;36.90;;;;;;5070825;28;20418;-72
2024/01/01 01:15:40;;;;;;;11.07;3.80;;;9.90;37.00;;;;;;5071212;28;20413;-74
2024/01/01 01:18:06;;;;;;;15.00;4.63;;;9.90;37.20;;;;;;5071310;28;20385;-74
2024/01/01 01:20:32;;;;;;;15.37;4.10;;;9.90;36.90;;;;;;5053305;28;20439;-74
2024/01/01 01:22:57;;;;;;;13.17;4.43;;;9.90;36.80;;;;;;5071136;28;20435;-73
2024/01/01 01:25:23;;;;;;;12.13;3.85;;;10.00;36.90;;;;;;5071410;28;20387;-74
2024/01/01 01:27:48;;;;;;;16.73;4.30;;;10.00;36.50;;;;;;5053450;28;20371;-73
2024/01/01 01:30:16;;;;;;;14.50;3.17;;;10.00;36.50;;;;;;5071325;28;20781;-73
2024/01/01 01:32:42;;;;;;;11.20;3.20;;;10.00;36.20;;;;;;5071538;28;20407;-73
2024/01/01 01:35:08;;;;;;;10.05;3.30;;;10.00;35.90;;;;;;5071564;28;20804;-72
2024/01/01 01:37:33;;;;;;;10.02;3.40;;;10.00;36.30;;;;;;5070767;28;20395;-73
2024/01/01 01:39:59;;;;;;;11.20;3.30;;;10.00;36.50;;;;;;5075429;28;20379;-74
2024/01/01 01:42:25;;;;;;;14.90;3.75;;;10.10;36.30;;;;;;5076709;28;20491;-73
2024/01/01 01:44:51;;;;;;;12.80;3.40;;;10.00;36.20;;;;;;5075445;28;20379;-74
2024/01/01 01:47:16;;;;;;;15.87;3.60;;;10.10;36.00;;;;;;5074133;28;20379;-74
2024/01/01 01:49:43;;;;;;;12.43;2.83;;;10.20;35.80;;;;;;5075060;28;20986;-74
2024/01/01 01:52:09;;;;;;;14.43;3.22;;;10.10;36.00;;;;;;5076083;28;20463;-74
2024/01/01 01:54:36;;;;;;;14.32;3.28;;;10.00;36.30;;;;;;5074125;28;20379;-74
2024/01/01 01:57:03;;;;;;;11.18;3.10;;;10.10;36.50;;;;;;5073982;28;20382;-73
2024/01/01 01:59:29;;;;;;;12.88;3.10;;;10.00;36.40;;;;;;5073759;28;20423;-74
2024/01/01 02:01:56;;;;;;;15.40;3.70;;;10.00;36.50;;;;;;5073456;28;20431;-73
2024/01/01 02:04:23;;;;;;;11.90;2.90;;;10.10;37.00;;;;;;5073416;28;20429;-73
2024/01/01 02:06:49;;;;;;;13.63;3.30;;;10.00;37.80;;;;;;5073743;28;20371;-74
2024/01/01 02:09:14;;;;;;;12.40;3.00;;;9.90;38.30;;;;;;5073490;28;20425;-74
2024/01/01 02:11:40;;;;;;;11.60;3.50;;;9.80;39.30;;;;;;5059423;28;20395;-74
2024/01/01 02:14:10;;;;;;;12.70;3.00;;;9.80;40.80;;;;;;5055355;28;20395;-74
2024/01/01 02:16:36;;;;;;;12.77;3.15;;;9.60;43.20;;;;;;5074120;28;20392;-73
2024/01/01 02:19:16;;;;;;;13.50;2.30;;;9.50;46.10;;;;;;5074359;28;20448;-74
2024/01/01 02:21:41;;;;;;;16.98;3.20;;;9.20;47.20;;;;;;5073705;28;20410;-73
2024/01/01 02:24:08;;;;;;;22.60;3.30;;;8.90;51.00;;;;;;5074236;28;20408;-75
2024/01/01 02:26:34;;;;;;;11.38;2.95;;;8.70;51.30;;;;;;5074839;28;20398;-74
2024/01/01 02:29:00;;;;;;;12.70;2.67;;;8.60;53.00;;;;;;5075432;28;20383;-73
2024/01/01 02:31:25;;;;;;;17.50;3.30;;;8.60;54.20;;;;;;5074015;28;20402;-74
2024/01/01 02:33:51;;;;;;;8.87;2.50;;;8.50;54.50;;;;;;5074101;28;20820;-74
2024/01/01 02:36:17;;;;;;;15.10;3.30;;;8.40;58.10;;;;;;5074940;28;20395;-74
2024/01/01 02:38:42;;;;;;;13.30;2.45;;;8.30;58.80;;;;;;5073968;28;20828;-75
2024/01/01 02:41:08;;;;;;;13.70;3.30;;;8.40;58.90;;;;;;5056213;28;20408;-75
2024/01/01 02:43:33;;;;;;;10.10;3.03;;;8.30;59.90;;;;;;5120561;22;20427;-72
2024/01/01 02:45:59;;;;;;;12.07;3.47;;;8.20;61.70;;;;;;5113429;28;20377;-72
2024/01/01 02:48:25;;;;;;;17.17;3.30;;;8.20;61.30;;;;;;5113634;28;21261;-70
2024/01/01 02:50:50;;;;;;;12.40;3.30;;;8.30;60.20;;;;;;5113687;28;20699;-72
2024/01/01 02:53:16;;;;;;;9.23;2.50;;;8.30;58.30;;;;;;5113608;28;20372;-71
2024/01/01 02:55:41;;;;;;;16.02;3.72;;;8.40;58.50;;;;;;5113678;28;20377;-72
2024/01/01 02:58:07;;;;;;;11.75;2.75;;;8.40;59.30;;;;;;5113315;28;20379;-72
2024/01/01 03:00:32;;;;;;;12.30;2.97;;;8.40;58.90;;;;;;5094931;28;20388;-73
2024/01/01 03:02:58;;;;;;;10.77;3.30;;;8.30;59.60;;;;;;5113501;28;20383;-73
2024/01/01 03:05:25;;;;;;;11.83;3.10;;;8.30;60.80;;;;;;5113093;28;20380;-73
2024/01/01 03:07:51;;;;;;;14.98;3.33;;;8.30;60.80;;;;;;5096993;28;20471;-73
2024/01/01 03:10:17;;;;;;;17.08;3.60;;;8.30;60.30;;;;;;5112674;28;20380;-72
2024/01/01 03:12:43;;;;;;;16.23;3.22;;;8.40;59.90;;;;;;5112714;28;20429;-72
2024/01/01 03:15:09;;;;;;;17.38;4.05;;;8.40;59.40;;;;;;5112411;28;20384;-73
2024/01/01 03:17:35;;;;;;;13.00;3.45;;;8.40;59.80;;;;;;5112704;28;20855;-73
2024/01/01 03:20:01;;;;;;;13.10;3.10;;;8.40;59.60;;;;;;5112680;28;20377;-73
2024/01/01 03:22:27;;;;;;;16.92;3.50;;;8.50;59.40;;;;;;5112970;28;20400;-73
2024/01/01 03:24:52;;;;;;;17.77;3.47;;;8.50;58.60;;;;;;5113006;28;20467;-73
2024/01/01 03:27:18;;;;;;;16.15;3.90;;;8.60;58.20;;;;;;5112366;28;20368;-73
2024/01/01 03:29:43;;;;;;;19.43;3.80;;;8.60;58.00;;;;;;5112322;28;20383;-73
2024/01/01 03:32:09;;;;;;;18.73;3.90;;;8.60;57.20;;;;;;5112324;28;20376;-73
2024/01/01 03:34:35;;;;;;;16.00;3.08;;;8.60;56.70;;;;;;5112253;28;20380;-73
2024/01/01 03:37:01;;;;;;;16.25;4.07;;;8.60;57.00;;;;;;5112292;28;20422;-73
2024/01/01 03:39:27;;;;;;;20.15;4.10;;;8.60;57.20;;;;;;5112042;28;20400;-73
2024/01/01 03:41:53;;;;;;;20.75;3.45;;;8.60;57.30;;;;;;5111840;28;20913;-73
2024/01/01 03:44:19;;;;;;;17.50;3.53;;;8.60;57.30;;;;;;5112095;28;20381;-73
2024/01/01 03:46:45;;;;;;;17.33;3.80;;;8.60;57.60;;;;;;5112495;28;20377;-73
2024/01/01 03:49:11;;;;;;;17.58;4.10;;;8.60;56.70;;;;;;5112090;28;20381;-70
2024/01/01 03:51:37;;;;;;;15.80;3.63;;;8.60;56.10;;;;;;5093486;28;20909;-73
2024/01/01 03:54:02;;;;;;;16.77;4.17;;;8.60;56.10;;;;;;5112057;28;20388;-73
2024/01/01 03:56:28;;;;;;;14.23;3.37;;;8.70;54.90;;;;;;5111656;28;20385;-72
2024/01/01 03:58:53;;;;;;;19.40;3.80;;;8.60;55.10;;;;;;5093882;28;20471;-73
2024/01/01 04:01:22;;;;;;;19.60;3.60;;;8.60;55.50;;;;;;5111436;28;20487;-73
2024/01/01 04:03:48;;;;;;;19.20;4.13;;;8.60;54.70;;;;;;5111455;28;20930;-72
2024/01/01 04:06:13;;;;;;;19.47;4.40;;;8.70;53.90;;;;;;5111555;28;20391;-73
2024/01/01 04:08:39;;;;;;;20.47;4.07;;;8.80;53.40;;;;;;5111615;28;20464;-72
2024/01/01 04:11:05;;;;;;;19.60;3.97;;;8.80;52.10;;;;;;5111480;28;20871;-72
2024/01/01 04:13:30;;;;;;;19.40;3.80;;;8.70;52.50;;;;;;5111452;28;20388;-74
2024/01/01 04:15:56;;;;;;;17.77;3.53;;;8.70;52.30;;;;;;5111358;28;20383;-73
2024/01/01 04:18:22;;;;;;;19.70;3.72;;;8.80;50.40;;;;;;5111594;28;20432;-73
2024/01/01 04:20:47;;;;;;;16.02;3.80;;;8.80;50.50;;;;;;5111473;28;20415;-72
2024/01/01 04:23:13;;;;;;;16.83;3.83;;;8.80;50.10;;;;;;5111373;28;20380;-73
2024/01/01 04:25:38;;;;;;;20.10;4.23;;;8.80;50.50;;;;;;5111515;28;20376;-74
2024/01/01 04:28:04;;;;;;;19.10;3.70;;;8.70;50.20;;;;;;5110941;28;20384;-73
2024/01/01 04:30:30;;;;;;;14.00;3.50;;;8.80;49.50;;;;;;5111471;28;20561;-73
2024/01/01 04:32:55;;;;;;;13.60;3.47;;;8.80;50.00;;;;;;5111750;28;20376;-73
2024/01/01 04:35:21;;;;;;;18.50;4.47;;;8.80;49.70;;;;;;5111504;28;20437;-73
2024/01/01 04:37:46;;;;;;;18.77;4.05;;;8.90;48.70;;;;;;5111075;28;20417;-72
2024/01/01 04:40:12;;;;;;;15.98;3.92;;;8.90;48.80;;;;;;5111363;28;20513;-72
2024/01/01 04:42:37;;;;;;;19.38;3.75;;;8.80;48.30;;;;;;5111131;28;20457;-72
2024/01/01 04:45:03;;;;;;;23.70;3.42;;;8.90;47.40;;;;;;5111601;28;20373;-72
2024/01/01 04:47:29;;;;;;;19.25;3.75;;;8.90;47.30;;;;;;5111551;28;20413;-72
2024/01/01 04:49:54;;;;;;;13.45;3.70;;;8.90;47.30;;;;;;5113218;28;20472;-70
2024/01/01 04:52:20;;;;;;;17.77;3.28;;;8.90;46.60;;;;;;5118398;28;20388;-72
2024/01/01 04:54:46;;;;;;;19.53;4.23;;;8.90;46.40;;;;;;5117040;28;20449;-72
2024/01/01 04:57:11;;;;;;;18.88;3.58;;;9.00;46.30;;;;;;5117470;28;20463;-72
2024/01/01 04:59:37;;;;;;;25.83;4.20;;;9.00;45.90;;;;;;5117882;28;20508;-72
2024/01/01 05:02:02;;;;;;;16.07;3.70;;;9.10;45.30;;;;;;5111919;28;20816;-72
2024/01/01 05:04:28;;;;;;;18.50;3.90;;;9.10;44.80;;;;;;5111744;28;20880;-73
2024/01/01 05:06:53;;;;;;;25.23;4.20;;;9.10;45.10;;;;;;5112697;28;20380;-73
2024/01/01 05:09:19;;;;;;;17.97;3.90;;;9.20;44.70;;;;;;5111854;28;20394;-73
2024/01/01 05:11:44;;;;;;;22.13;3.60;;;9.20;44.40;;;;;;5112286;28;20384;-72
2024/01/01 05:14:10;;;;;;;16.50;3.40;;;9.20;43.60;;;;;;5097721;28;20380;-71
2024/01/01 05:16:36;;;;;;;23.65;4.10;;;9.20;43.80;;;;;;5124127;28;20415;-72
2024/01/01 05:19:02;;;;;;;11.70;3.00;;;9.20;43.50;;;;;;5121958;28;20399;-72
2024/01/01 05:21:28;;;;;;;16.92;3.40;;;9.30;43.00;;;;;;5122672;28;20400;-72
2024/01/01 05:23:53;;;;;;;21.65;3.45;;;9.30;42.60;;;;;;5121499;28;20387;-72
2024/01/01 05:26:19;;;;;;;20.42;3.53;;;9.30;42.80;;;;;;5116493;28;20382;-73
2024/01/01 05:28:45;;;;;;;20.45;3.97;;;9.30;43.00;;;;;;5116575;28;20462;-72
2024/01/01 05:31:10;;;;;;;22.33;3.75;;;9.30;42.70;;;;;;5117369;28;20376;-73
2024/01/01 05:33:36;;;;;;;10.18;3.20;;;9.30;43.30;;;;;;5116553;28;20391;-73
2024/01/01 05:36:02;;;;;;;20.00;4.00;;;9.20;42.90;;;;;;5114487;28;20893;-73
2024/01/01 05:38:28;;;;;;;17.23;3.60;;;9.30;43.30;;;;;;5114455;28;20415;-73
2024/01/01 05:40:53;;;;;;;15.55;3.42;;;9.30;43.10;;;;;;5114306;28;20454;-73
2024/01/01 05:43:21;;;;;;;21.33;4.17;;;9.30;42.90;;;;;;5114210;28;20437;-73
2024/01/01 05:45:47;;;;;;;20.17;3.50;;;9.20;42.70;;;;;;5114438;28;20372;-72
2024/01/01 05:48:13;;;;;;;15.35;3.63;;;9.20;43.10;;;;;;5114462;28;20746;-73
2024/01/01 05:50:38;;;;;;;22.08;3.70;;;9.20;42.70;;;;;;5114378;28;20382;-72
2024/01/01 05:53:06;;;;;;;18.63;3.70;;;9.30;42.80;;;;;;5114663;28;20384;-72
2024/01/01 05:55:33;;;;;;;17.27;3.90;;;9.30;42.40;;;;;;5115056;28;20380;-71
2024/01/01 05:57:58;;;;;;;15.13;4.00;;;9.30;42.20;;;;;;5114372;28;20376;-72
2024/01/01 06:00:24;;;;;;;22.27;4.47;;;9.30;42.20;;;;;;5114061;28;20425;-73
2024/01/01 06:02:50;;;;;;;17.58;3.22;;;9.30;42.20;;;;;;5114215;28;20404;-71
2024/01/01 06:05:15;;;;;;;15.23;3.73;;;9.30;41.80;;;;;;5114483;28;20988;-73
2024/01/01 06:07:41;;;;;;;22.05;3.70;;;9.30;42.00;;;;;;5113878;28;20932;-73
2024/01/01 06:10:07;;;;;;;17.55;3.58;;;9.30;41.50;;;;;;5114054;28;20842;-72
2024/01/01 06:12:32;;;;;;;17.58;3.05;;;9.40;42.10;;;;;;5114160;28;20452;-73
2024/01/01 06:14:58;;;;;;;8.55;2.63;;;9.40;41.20;;;;;;5114134;28;20392;-71
2024/01/01 06:17:23;;;;;;;17.05;4.18;;;9.40;41.60;;;;;;5114228;28;20380;-72
2024/01/01 06:19:50;;;;;;;17.58;3.35;;;9.40;41.50;;;;;;5114401;28;20392;-72
2024/01/01 06:22:16;;;;;;;18.42;3.67;;;9.40;41.30;;;;;;5113936;28;20445;-71
2024/01/01 06:24:42;;;;;;;19.48;3.67;;;9.40;41.70;;;;;;5113943;28;20377;-72
2024/01/01 06:27:07;;;;;;;16.92;3.70;;;9.40;41.90;;;;;;5095867;28;20426;-72
2024/01/01 06:29:33;;;;;;;21.60;3.50;;;9.30;41.90;;;;;;5116067;28;20377;-72
2024/01/01 06:31:58;;;;;;;16.92;3.63;;;9.30;41.90;;;;;;5117473;28;20392;-72
2024/01/01 06:34:24;;;;;;;16.48;3.45;;;9.40;41.60;;;;;;5115853;28;20420;-72
2024/01/01 06:36:49;;;;;;;17.30;3.45;;;9.40;41.90;;;;;;5115164;28;20424;-72
2024/01/01 06:39:15;;;;;;;16.03;3.70;;;9.30;42.90;;;;;;5098281;28;20481;-71
2024/01/01 06:41:41;;;;;;;12.73;3.20;;;9.30;44.70;;;;;;5127598;28;20498;-72
2024/01/01 06:44:07;;;;;;;18.30;3.70;;;9.10;46.20;;;;;;5136043;28;20432;-72
2024/01/01 06:46:32;;;;;;;17.45;3.72;;;9.10;47.00;;;;;;5136156;28;20366;-72
2024/01/01 06:48:58;;;;;;;17.02;3.50;;;9.00;48.90;;;;;;5112407;28;20376;-73
2024/01/01 06:51:23;;;;;;;17.02;3.78;;;8.90;49.70;;;;;;5134710;28;20405;-73
2024/01/01 06:53:49;;;;;;;15.55;3.13;;;8.80;51.50;;;;;;5137483;28;20419;-72
2024/01/01 06:56:14;;;;;;;15.80;3.38;;;8.80;50.90;;;;;;5137171;28;20384;-73
2024/01/01 06:58:41;;;;;;;15.87;3.80;;;8.80;51.40;;;;;;5137055;28;20380;-73
2024/01/01 07:01:06;;;;;;;13.35;3.25;;;8.70;51.20;;;;;;5136555;28;20400;-72
2024/01/01 07:03:32;;;;;;;19.70;4.60;;;8.70;52.60;;;;;;5135632;28;20867;-71
2024/01/01 07:05:57;;;;;;;16.30;3.40;;;8.70;51.80;;;;;;5135162;28;20421;-72
2024/01/01 07:08:23;;;;;;;17.03;4.13;;;8.80;51.20;;;;;;5134980;28;20377;-72
2024/01/01 07:10:49;;;;;;;18.17;3.53;;;8.70;50.30;;;;;;5116555;28;20417;-72
2024/01/01 07:13:14;;;;;;;19.42;3.60;;;8.70;51.20;;;;;;5134597;28;20385;-72
2024/01/01 07:15:40;;;;;;;16.00;3.53;;;8.70;52.00;;;;;;5135967;28;20392;-72
2024/01/01 07:18:07;;;;;;;18.80;3.90;;;8.70;52.10;;;;;;5135499;28;20394;-71
2024/01/01 07:20:32;;;;;;;11.88;3.20;;;8.60;52.10;;;;;;5133158;28;20884;-73
2024/01/01 07:22:58;;;;;;;14.03;2.73;;;8.60;51.50;;;;;;5134861;28;20523;-72
2024/01/01 07:25:24;;;;;;;15.10;2.93;;;8.60;51.70;;;;;;5135853;28;20529;-72
2024/01/01 07:27:50;;;;;;;18.50;3.30;;;8.60;51.30;;;;;;5126909;28;20396;-71
2024/01/01 07:30:16;;;;;;;16.40;3.42;;;8.60;50.50;;;;;;5097938;28;20758;-72
2024/01/01 07:32:41;;;;;;;14.60;3.28;;;8.70;50.00;;;;;;5115379;28;20382;-72
2024/01/01 07:35:08;;;;;;;14.90;2.97;;;8.70;49.60;;;;;;5115693;28;20375;-71
2024/01/01 07:37:35;;;;;;;13.77;2.72;;;8.70;49.80;;;;;;5115446;28;20720;-72
2024/01/01 07:40:01;;;;;;;10.82;2.53;;;8.60;50.00;;;;;;5112574;28;20477;-72
2024/01/01 07:42:27;;;;;;;13.18;3.10;;;8.60;50.10;;;;;;5113407;28;20412;-72
2024/01/01 07:44:52;;;;;;;13.07;3.00;;;8.70;50.50;;;;;;5112844;28;20482;-72
2024/01/01 07:47:19;;;;;;;11.27;3.20;;;8.70;50.80;;;;;;5112601;28;20378;-72
2024/01/01 07:49:45;;;;;;;15.05;2.92;;;8.70;51.30;;;;;;5112593;28;20384;-72
2024/01/01 07:52:12;;;;;;;12.70;2.40;;;8.70;50.80;;;;;;5112653;28;20403;-72
2024/01/01 07:54:39;;;;;;;11.67;2.70;;;8.70;49.30;;;;;;5112399;28;20384;-73
2024/01/01 07:57:06;;;;;;;8.75;2.20;;;8.70;49.00;;;;;;5112059;28;20376;-72
2024/01/01 07:59:39;;;;;;;9.13;2.50;;;8.70;48.50;;;;;;5069172;28;20355;-73
2024/01/01 08:02:04;;;;;;;7.63;1.93;;;8.70;49.30;;;;;;5069173;28;20743;-72
2024/01/01 08:04:30;;;;;;;9.47;2.00;;;8.70;48.80;;;;;;5067331;28;20446;-73
2024/01/01 08:06:55;;;;;;;14.97;2.60;;;8.70;48.40;;;;;;5068271;28;20376;-72
2024/01/01 08:09:21;;;;;;;13.10;2.87;;;8.70;49.20;;;;;;5068606;28;20380;-72
2024/01/01 08:11:46;;;;;;;13.07;2.50;;;8.80;49.70;;;;;;5079813;22;21081;-75
2024/01/01 08:14:12;;;;;;;9.87;2.30;;;8.70;48.90;;;;;;5048104;28;20389;-76
2024/01/01 08:16:37;;;;;;;7.60;1.90;;;8.70;49.30;;;;;;5048039;28;20817;-75
2024/01/01 08:19:03;;;;;;;8.13;2.03;;;8.60;49.90;;;;;;5047541;28;20399;-75
2024/01/01 08:21:29;;;;;;;6.87;1.90;;;8.60;49.70;;;;;;5046129;28;20390;-75
2024/01/01 08:23:54;;;;;;;9.90;1.80;;;8.60;49.40;;;;;;5047353;28;20389;-73
2024/01/01 08:26:20;;;;;;;8.30;1.60;;;8.60;49.60;;;;;;5047376;28;20382;-74
2024/01/01 08:28:51;;;;;;;8.93;2.00;;;8.60;49.50;;;;;;5047367;28;20869;-75
2024/01/01 08:31:20;;;;;;;7.27;2.13;;;8.60;50.00;;;;;;5047601;28;20386;-75
2024/01/01 08:33:46;;;;;;;7.05;1.50;;;8.60;50.70;;;;;;5047268;28;20397;-76
2024/01/01 08:36:12;;;;;;;7.03;1.80;;;8.60;50.30;;;;;;5046082;28;20393;-74
2024/01/01 08:38:37;;;;;;;10.00;1.80;;;8.60;50.30;;;;;;5047016;28;20807;-74
2024/01/01 08:41:03;;;;;;;6.80;1.90;;;8.60;49.80;;;;;;5047464;28;20437;-74
2024/01/01 08:43:29;;;;;;;7.47;2.00;;;8.60;49.60;;;;;;5047506;28;20722;-74
2024/01/01 08:45:54;;;;;;;6.38;1.50;;;8.60;49.10;;;;;;5047192;28;20382;-75
2024/01/01 08:48:20;;;;;;;6.70;1.90;;;8.50;49.40;;;;;;5047426;28;20861;-75
2024/01/01 08:50:46;;;;;;;6.38;1.80;;;8.50;49.30;;;;;;5046920;28;20958;-74
2024/01/01 08:53:11;;;;;;;6.10;2.10;;;8.60;49.30;;;;;;5047562;28;20378;-75
2024/01/01 08:55:37;;;;;;;6.47;2.10;;;8.60;49.20;;;;;;5047177;28;20401;-75
2024/01/01 08:58:04;;;;;;;8.35;2.13;;;8.70;48.90;;;;;;5049393;28;20402;-77
2024/01/01 09:00:30;;;;;;;6.35;1.42;;;8.70;49.20;;;;;;5052222;28;20451;-75
2024/01/01 09:02:55;;;;;;;7.60;1.80;;;8.60;49.10;;;;;;5049186;28;20394;-75
2024/01/01 09:05:21;;;;;;;6.30;1.40;;;8.60;49.20;;;;;;5045569;28;20457;-75
2024/01/01 09:07:46;;;;;;;9.27;1.73;;;8.70;48.70;;;;;;5046850;28;20390;-74
2024/01/01 09:10:12;;;;;;;9.50;1.93;;;8.70;49.20;;;;;;5038027;28;20400;-75
2024/01/01 09:12:38;;;;;;;10.40;2.30;;;8.70;49.50;;;;;;5032467;28;20509;-75
2024/01/01 09:15:04;;;;;;;7.77;2.00;;;8.70;49.10;;;;;;5033388;28;20485;-75
2024/01/01 09:17:29;;;;;;;5.20;1.90;;;8.80;48.30;;;;;;5033393;28;20464;-75
2024/01/01 09:19:55;;;;;;;10.50;2.10;;;8.70;49.00;;;;;;5033405;28;20395;-75
2024/01/01 09:22:20;;;;;;;10.07;1.90;;;8.80;48.70;;;;;;5033445;28;20391;-76
2024/01/01 09:24:46;;;;;;;11.77;2.37;;;8.80;48.90;;;;;;5034090;28;20422;-76
2024/01/01 09:27:11;;;;;;;10.63;1.90;;;8.80;49.00;;;;;;5034627;28;20384;-76
2024/01/01 09:29:37;;;;;;;5.63;1.70;;;8.80;48.70;;;;;;5034151;28;20884;-75
2024/01/01 09:32:03;;;;;;;12.07;2.10;;;8.80;48.80;;;;;;5034405;28;20391;-76
2024/01/01 09:34:29;;;;;;;10.97;2.00;;;8.90;48.30;;;;;;5034083;28;20396;-76
2024/01/01 09:36:54;;;;;;;10.68;2.70;;;9.00;47.60;;;;;;5033711;28;20757;-76
2024/01/01 09:39:20;;;;;;;7.57;1.90;;;9.00;47.20;;;;;;5033280;28;20754;-74
2024/01/01 09:41:46;;;;;;;7.63;2.00;;;9.00;47.80;;;;;;5032872;28;20833;-74
2024/01/01 09:44:11;;;;;;;6.13;2.03;;;9.00;47.80;;;;;;5032850;28;20560;-76
2024/01/01 09:46:38;;;;;;;6.55;2.00;;;9.10;47.20;;;;;;5033236;28;20869;-75
2024/01/01 09:49:04;;;;;;;8.57;2.20;;;9.00;47.00;;;;;;5033087;28;20449;-75
2024/01/01 09:51:30;;;;;;;10.77;2.47;;;9.10;46.90;;;;;;5032687;28;20398;-74
2024/01/01 09:53:55;;;;;;;12.47;2.40;;;9.10;47.30;;;;;;5032869;28;20462;-74
2024/01/01 09:56:21;;;;;;;9.50;2.30;;;9.10;47.50;;;;;;5032837;28;20391;-74
2024/01/01 09:58:47;;;;;;;6.80;2.27;;;9.20;47.20;;;;;;5032336;28;20464;-76
2024/01/01 10:01:16;;;;;;;12.80;2.27;;;9.20;46.90;;;;;;5032589;28;20558;-75
2024/01/01 10:03:42;;;;;;;9.98;2.40;;;9.30;46.50;;;;;;5031247;28;20389;-75
2024/01/01 10:06:09;;;;;;;9.90;2.20;;;9.40;46.20;;;;;;5032386;28;20391;-75
2024/01/01 10:08:35;;;;;;;8.93;2.10;;;9.40;46.20;;;;;;5033319;28;20441;-75
2024/01/01 10:11:20;;;;;;;8.70;2.00;;;9.50;45.00;;;;;;5033514;28;20391;-76
2024/01/01 10:13:49;;;;;;;5.33;2.10;;;9.50;46.50;;;;;;5033619;28;20428;-76
2024/01/01 10:16:25;;;;;;;8.45;1.90;;;9.50;45.30;;;;;;5033781;28;20976;-77
2024/01/01 10:18:56;;;;;;;9.88;2.33;;;9.50;45.80;;;;;;5033175;28;20403;-76
2024/01/01 10:21:27;;;;;;;10.23;1.90;;;9.50;45.30;;;;;;5032079;28;20764;-76
2024/01/01 10:23:53;;;;;;;11.60;2.00;;;9.40;45.10;;;;;;5032046;28;20903;-76
2024/01/01 10:26:18;;;;;;;7.57;1.90;;;9.50;44.80;;;;;;5031752;28;20777;-75
2024/01/01 10:28:44;;;;;;;7.90;2.00;;;9.40;45.10;;;;;;5032544;28;20425;-74
2024/01/01 10:31:12;;;;;;;8.35;2.05;;;9.60;44.30;;;;;;5032812;28;20438;-76
2024/01/01 10:33:42;;;;;;;6.88;2.30;;;9.70;44.50;;;;;;5032278;28;20893;-75
2024/01/01 10:36:08;;;;;;;9.15;2.08;;;9.80;43.70;;;;;;5034302;28;20386;-76
2024/01/01 10:38:36;;;;;;;7.68;1.73;;;9.80;44.00;;;;;;5033993;28;20443;-75
2024/01/01 10:41:03;;;;;;;10.07;2.50;;;9.90;43.70;;;;;;5033484;28;20821;-76
2024/01/01 10:43:29;;;;;;;14.27;1.90;;;9.80;43.30;;;;;;5031970;28;20418;-77
2024/01/01 10:46:01;;;;;;;10.63;2.20;;;9.90;43.20;;;;;;5033338;28;20387;-75
2024/01/01 10:48:26;;;;;;;8.00;2.30;;;9.80;43.30;;;;;;5034968;28;20472;-75
2024/01/01 10:51:03;;;;;;;17.10;2.25;;;9.70;43.70;;;;;;5036746;28;20481;-74
2024/01/01 10:54:01;;;;;;;10.77;2.10;;;9.70;43.90;;;;;;5039060;28;20383;-75
2024/01/01 10:56:48;;;;;;;7.53;2.30;;;9.60;44.40;;;;;;5038617;28;20393;-75
2024/01/01 10:59:32;;;;;;;14.63;2.50;;;9.60;44.20;;;;;;5039271;28;20429;-75
2024/01/01 11:01:57;;;;;;;9.57;2.03;;;9.70;44.50;;;;;;5040041;28;20434;-75
2024/01/01 11:04:24;;;;;;;6.68;2.55;;;9.60;44.20;;;;;;5039207;28;20376;-76
2024/01/01 11:06:49;;;;;;;11.88;2.60;;;9.70;44.30;;;;;;5038023;28;20912;-75
2024/01/01 11:09:18;;;;;;;11.85;2.47;;;9.70;44.90;;;;;;5037493;28;20387;-76
2024/01/01 11:11:51;;;;;;;8.77;2.30;;;9.80;44.60;;;;;;5036862;28;20406;-75
2024/01/01 11:14:38;;;;;;;12.45;2.30;;;9.90;43.40;;;;;;5035846;28;20391;-76
2024/01/01 11:17:06;;;;;;;7.18;2.40;;;10.00;43.50;;;;;;5034191;28;20453;-76
2024/01/01 11:19:39;;;;;;;11.80;2.47;;;10.10;42.80;;;;;;5034967;28;20468;-76
2024/01/01 11:22:20;;;;;;;11.18;3.00;;;10.20;42.40;;;;;;5034550;28;20893;-77
2024/01/01 11:24:50;;;;;;;7.60;2.53;;;10.40;42.10;;;;;;5033845;28;20398;-76
2024/01/01 11:27:26;;;;;;;10.27;2.78;;;10.50;41.40;;;;;;5033107;28;20379;-75
2024/01/01 11:29:52;;;;;;;14.20;2.60;;;10.70;40.90;;;;;;5033339;28;20450;-77
2024/01/01 11:32:20;;;;;;;12.53;2.40;;;10.70;40.60;;;;;;5033665;28;20460;-74
2024/01/01 11:35:08;;;;;;;9.77;2.53;;;10.90;40.40;;;;;;5030933;28;20387;-75
2024/01/01 11:37:38;;;;;;;10.68;2.58;;;11.10;39.40;;;;;;5031006;28;20467;-75
2024/01/01 11:40:05;;;;;;;9.57;2.50;;;11.10;38.10;;;;;;5031500;28;20390;-75
2024/01/01 11:42:31;;;;;;;12.00;2.20;;;10.90;39.10;;;;;;5032648;28;20383;-75
2024/01/01 11:45:06;;;;;;;8.25;2.20;;;10.90;39.50;;;;;;5031707;28;20512;-74
2024/01/01 11:47:32;;;;;;;9.80;2.60;;;11.20;39.10;;;;;;5030426;28;20874;-75
2024/01/01 11:50:00;;;;;;;10.52;2.70;;;11.40;38.30;;;;;;5030754;28;20383;-75
2024/01/01 11:52:25;;;;;;;7.43;2.33;;;11.20;38.60;;;;;;5033396;28;20468;-75
2024/01/01 11:54:51;;;;;;;12.25;2.80;;;11.20;38.50;;;;;;5030949;28;20430;-74
2024/01/01 11:57:17;;;;;;;14.80;2.35;;;11.10;38.90;;;;;;5030604;28;20437;-74
2024/01/01 11:59:42;;;;;;;12.00;2.58;;;10.90;39.30;;;;;;5032069;28;20407;-75
2024/01/01 12:02:10;;;;;;;8.18;2.58;;;10.80;39.60;;;;;;5029388;28;20461;-74
2024/01/01 12:04:36;;;;;;;14.50;2.75;;;10.70;39.40;;;;;;5030811;28;20433;-75
2024/01/01 12:07:02;;;;;;;12.27;2.60;;;10.60;40.50;;;;;;5029094;28;20387;-74
2024/01/01 12:09:28;;;;;;;10.83;2.40;;;10.50;40.40;;;;;;5030992;28;20391;-74
2024/01/01 12:12:03;;;;;;;11.43;2.57;;;10.40;40.70;;;;;;5030538;28;20395;-75
2024/01/01 12:14:29;;;;;;;15.85;3.30;;;10.40;41.20;;;;;;5035847;28;20389;-75
2024/01/01 12:16:57;;;;;;;10.85;2.42;;;10.40;40.80;;;;;;5035992;28;20395;-75
2024/01/01 12:19:23;;;;;;;14.85;2.90;;;10.40;40.90;;;;;;5031406;28;20433;-74
2024/01/01 12:21:50;;;;;;;11.65;3.20;;;10.40;40.20;;;;;;5036276;28;20382;-77
2024/01/01 12:24:16;;;;;;;9.90;3.00;;;10.40;41.20;;;;;;5039177;28;20402;-76
2024/01/01 12:26:44;;;;;;;19.20;3.05;;;10.40;41.30;;;;;;5040336;28;20378;-75
2024/01/01 12:29:17;;;;;;;15.32;2.88;;;10.30;41.00;;;;;;5039926;28;20474;-76
2024/01/01 12:31:44;;;;;;;10.77;3.30;;;10.40;40.80;;;;;;5040488;28;20482;-76
2024/01/01 12:34:17;;;;;;;15.20;2.95;;;10.50;40.50;;;;;;5042928;28;20399;-76
2024/01/01 12:36:45;;;;;;;15.23;3.50;;;10.50;40.60;;;;;;5043624;28;20387;-75
2024/01/01 12:39:12;;;;;;;16.70;3.00;;;10.50;40.40;;;;;;5042152;28;20870;-76
2024/01/01 12:41:38;;;;;;;18.20;3.78;;;10.40;40.80;;;;;;5042716;28;20383;-76